Pagrindinis puslapis
METAR-TAF:

METAR-TAF

Oro uostai :

Funafučio tarptautinis oro uostas

Funafutis, Tuvalu

platuma: 08-31S, ilguma: 179-13E, Aukštis: 1 m

Dabartinis oras

Ataskaita buvo paskelbta 54 minutes, ne 09:00 UTC
Vėjas 3 kt iš Rytų
Temperatūra 29°C
Drėgmė 79%
Slėgis 1010 hPa
Matomumas 10 km arba daugiau
Mažai debesys ne aukštis 2000 ft
Išsisklaidę debesys ne aukštis 11000 ft

METAR: NGFU 290900Z 09003KT 9999 FEW020 SCT110 29/25 Q1010

Laikas: 21:54 (09:54 UTC)

Prognozė

Ataskaita buvo paskelbta 4 valandos ir 45 minutes, ne 05:09 UTC
Prognozė galioja nuo 29 metu 06 UTC su 01 metu 06 UTC
Vėjas 7 kt iš Rytų
Matomumas 10 km arba daugiau
Išsisklaidę debesys ne aukštis 1800 ft
Su prošvaistėmis ne aukštis 10000 ft
Tikimybė 30% :
Laikinai
nuo 29 metu 06 UTC su 29 metu 20 UTC
Matomumas: 5000 m
Su prošvaistėmis ne aukštis 1500 ft
Mažai debesys ne aukštis 1800 ft, Liūtiniai kamuoliniai debesys.
perkūnija, lietus

TAF: NGFU 290509Z 2906/0106 08007KT 9999 SCT018 BKN100 PROB30 TEMPO 2906/2920 5000 TSRA BKN015 FEW018CB

Orai ataskaitas ir orų prognozės (METAR, TAF).

turimą stotys yra geltonos ir raudonos taškus žemėlapyje.

Perkelti pele per norėdami pamatyti stoties vardą.

Tada spustelėkite, norėdami matyti oro stebėjimo ir prognozės.

Norėdami pakeisti žemėlapį: spustelėkite ant žalios mygtukų su juodo kryžiaus žemyn,; žalią mygtuką su brūkšneliu, jei norite nutolinti; arba žalių rodyklių gretimoms žemėlapius.


METAR-TAF: